Time;durP1;ratioP1;P1;durP2;ratioP2;P2;SDS_P1;SDS_P2;PMS_P1;PMS_P2;Temp;Humidity;BMP_temperature;BMP_pressure;BME280_temperature;BME280_humidity;BME280_pressure;Samples;Min_cycle;Max_cycle;Signal;HPM_P1;HPM_P2
2021/04/15 00:02:11;;;;;;;3.72;2.20;;;;;;;;;;5054333;28;20171;-53
2021/04/15 00:04:37;;;;;;;8.68;2.20;;;;;;;;;;5054664;28;20036;-51
2021/04/15 00:07:03;;;;;;;4.45;1.98;;;;;;;;;;5055096;28;20033;-52
2021/04/15 00:09:29;;;;;;;5.00;2.33;;;;;;;;;;5054766;28;20032;-53
2021/04/15 00:11:55;;;;;;;5.00;2.20;;;;;;;;;;5055051;28;20033;-52
2021/04/15 00:14:22;;;;;;;5.43;1.80;;;;;;;;;;5054703;28;20103;-56
2021/04/15 00:16:48;;;;;;;4.80;2.60;;;;;;;;;;5057367;28;20107;-54
2021/04/15 00:19:18;;;;;;;4.68;2.35;;;;;;;;;;5059433;28;20029;-55
2021/04/15 00:21:45;;;;;;;5.35;2.15;;;;;;;;;;5055029;28;20017;-54
2021/04/15 00:24:11;;;;;;;4.85;2.10;;;;;;;;;;5054333;28;20397;-56
2021/04/15 00:26:37;;;;;;;4.00;2.42;;;;;;;;;;5054183;28;20452;-52
2021/04/15 00:29:03;;;;;;;5.72;2.58;;;;;;;;;;5053377;28;20041;-54
2021/04/15 00:31:29;;;;;;;4.55;2.63;;;;;;;;;;5054653;28;20078;-52
2021/04/15 00:33:55;;;;;;;3.08;1.98;;;;;;;;;;5053981;28;20082;-54
2021/04/15 00:36:22;;;;;;;5.38;2.63;;;;;;;;;;5048458;28;20104;-55
2021/04/15 00:38:49;;;;;;;6.05;2.08;;;;;;;;;;5051380;28;20035;-54
2021/04/15 00:41:15;;;;;;;4.43;2.10;;;;;;;;;;5043546;28;20043;-55
2021/04/15 00:43:43;;;;;;;5.63;2.22;;;;;;;;;;5051657;28;20515;-51
2021/04/15 00:46:18;;;;;;;3.83;2.35;;;;;;;;;;5051358;28;20145;-52
2021/04/15 00:48:45;;;;;;;4.57;2.00;;;;;;;;;;5034140;28;20109;-56
2021/04/15 00:51:23;;;;;;;5.80;1.98;;;;;;;;;;5046833;28;20130;-57
2021/04/15 00:53:52;;;;;;;3.30;1.95;;;;;;;;;;5041059;28;20351;-56
2021/04/15 00:56:18;;;;;;;3.25;2.30;;;;;;;;;;5053718;28;20052;-56
2021/04/15 00:58:45;;;;;;;5.35;2.08;;;;;;;;;;5048712;28;20416;-55
2021/04/15 01:01:11;;;;;;;3.53;2.20;;;;;;;;;;5053590;28;20086;-55
2021/04/15 01:03:38;;;;;;;4.63;2.30;;;;;;;;;;5053677;28;20469;-54
2021/04/15 01:06:04;;;;;;;5.07;2.53;;;;;;;;;;5053789;28;20090;-54
2021/04/15 01:08:30;;;;;;;3.38;2.13;;;;;;;;;;5052851;28;20346;-54
2021/04/15 01:11:01;;;;;;;3.33;2.38;;;;;;;;;;5052368;28;20037;-52
2021/04/15 01:13:42;;;;;;;6.05;2.47;;;;;;;;;;5053811;28;20025;-54
2021/04/15 01:16:24;;;;;;;5.07;2.70;;;;;;;;;;5051177;28;20067;-56
2021/04/15 01:18:54;;;;;;;4.53;2.57;;;;;;;;;;5053024;28;20029;-53
2021/04/15 01:21:35;;;;;;;4.80;2.33;;;;;;;;;;5053813;28;20420;-54
2021/04/15 01:24:10;;;;;;;3.75;2.35;;;;;;;;;;5053459;28;20025;-51
2021/04/15 01:26:55;;;;;;;3.38;2.35;;;;;;;;;;5045384;28;20215;-51
2021/04/15 01:29:23;;;;;;;4.70;2.20;;;;;;;;;;5053412;28;20108;-56
2021/04/15 01:31:55;;;;;;;5.32;2.72;;;;;;;;;;5051034;28;20447;-55
2021/04/15 01:34:24;;;;;;;4.80;2.20;;;;;;;;;;5048017;28;20029;-54
2021/04/15 01:37:00;;;;;;;7.65;2.17;;;;;;;;;;5038720;28;20022;-52
2021/04/15 01:39:29;;;;;;;7.50;2.40;;;;;;;;;;5053742;28;20551;-52
2021/04/15 01:42:02;;;;;;;4.85;2.45;;;;;;;;;;5053198;28;20021;-51
2021/04/15 01:44:39;;;;;;;7.10;2.10;;;;;;;;;;5064183;28;20033;-54
2021/04/15 01:47:08;;;;;;;3.65;2.13;;;;;;;;;;5061550;28;20108;-56
2021/04/15 01:49:37;;;;;;;5.72;2.22;;;;;;;;;;5053311;28;20444;-53
2021/04/15 01:52:06;;;;;;;4.30;2.60;;;;;;;;;;5052881;28;20132;-55
2021/04/15 01:54:38;;;;;;;4.63;2.33;;;;;;;;;;5052523;28;20033;-55
2021/04/15 01:57:06;;;;;;;3.25;2.50;;;;;;;;;;5046612;28;20112;-51
2021/04/15 01:59:35;;;;;;;3.55;2.17;;;;;;;;;;5035942;28;20136;-56
2021/04/15 02:02:08;;;;;;;3.20;2.00;;;;;;;;;;5051299;28;20025;-54
2021/04/15 02:04:37;;;;;;;2.67;1.88;;;;;;;;;;5052799;28;20350;-55
2021/04/15 02:07:09;;;;;;;5.00;2.65;;;;;;;;;;5052549;28;20075;-57
2021/04/15 02:09:37;;;;;;;4.15;2.03;;;;;;;;;;5053211;28;20032;-56
2021/04/15 02:12:08;;;;;;;6.55;2.55;;;;;;;;;;5053279;28;20033;-53
2021/04/15 02:14:35;;;;;;;4.05;2.28;;;;;;;;;;5039746;28;20033;-55
2021/04/15 02:17:04;;;;;;;4.05;2.40;;;;;;;;;;5052250;28;20029;-51
2021/04/15 02:19:42;;;;;;;4.55;2.40;;;;;;;;;;5052277;28;20677;-55
2021/04/15 02:22:27;;;;;;;2.78;2.08;;;;;;;;;;5052141;28;20469;-53
2021/04/15 02:24:53;;;;;;;3.47;2.15;;;;;;;;;;5052249;28;20041;-56
2021/04/15 02:27:21;;;;;;;5.53;2.17;;;;;;;;;;5051762;28;20033;-55
2021/04/15 02:29:53;;;;;;;4.28;2.08;;;;;;;;;;5052863;28;20465;-55
2021/04/15 02:32:23;;;;;;;3.30;2.00;;;;;;;;;;5052165;28;20029;-53
2021/04/15 02:34:52;;;;;;;4.78;2.00;;;;;;;;;;5052444;28;20021;-55
2021/04/15 02:37:20;;;;;;;4.93;2.15;;;;;;;;;;5042808;28;20071;-55
2021/04/15 02:39:50;;;;;;;3.50;2.03;;;;;;;;;;5051954;28;20041;-57
2021/04/15 02:42:24;;;;;;;7.70;2.20;;;;;;;;;;5054103;28;20031;-54
2021/04/15 02:44:54;;;;;;;3.53;2.38;;;;;;;;;;5058664;28;20113;-55
2021/04/15 02:47:27;;;;;;;4.05;1.90;;;;;;;;;;5050962;28;20037;-55
2021/04/15 02:49:53;;;;;;;;;;;;;;;;;;5051414;28;20381;-55
2021/04/15 02:52:21;;;;;;;6.97;2.35;;;;;;;;;;5056688;28;19980;-54
2021/04/15 02:54:49;;;;;;;4.20;2.53;;;;;;;;;;5052130;28;20108;-54
2021/04/15 02:57:27;;;;;;;4.30;2.20;;;;;;;;;;5044308;28;20116;-57
2021/04/15 03:00:05;;;;;;;5.20;2.42;;;;;;;;;;5049546;28;20100;-56
2021/04/15 03:02:36;;;;;;;10.73;2.38;;;;;;;;;;5050283;28;20048;-57
2021/04/15 03:05:08;;;;;;;2.92;1.80;;;;;;;;;;5052319;28;20029;-57
2021/04/15 03:07:37;;;;;;;2.75;2.00;;;;;;;;;;5048931;28;20115;-59
2021/04/15 03:10:04;;;;;;;3.90;2.17;;;;;;;;;;5048973;28;20029;-58
2021/04/15 03:12:33;;;;;;;4.22;2.55;;;;;;;;;;5052928;28;20024;-54
2021/04/15 03:15:13;;;;;;;3.65;2.17;;;;;;;;;;5050969;28;20144;-57
2021/04/15 03:17:42;;;;;;;5.28;2.00;;;;;;;;;;5050997;28;20021;-57
2021/04/15 03:20:12;;;;;;;4.43;2.15;;;;;;;;;;5051847;28;20107;-56
2021/04/15 03:22:45;;;;;;;5.82;2.00;;;;;;;;;;5049900;28;20033;-53
2021/04/15 03:25:12;;;;;;;6.47;2.22;;;;;;;;;;5051501;28;20163;-51
2021/04/15 03:27:56;;;;;;;4.22;2.13;;;;;;;;;;5051375;28;20108;-54
2021/04/15 03:30:29;;;;;;;4.50;2.10;;;;;;;;;;5051827;28;20025;-55
2021/04/15 03:33:10;;;;;;;4.63;1.95;;;;;;;;;;5051424;28;20033;-55
2021/04/15 03:35:41;;;;;;;2.95;1.67;;;;;;;;;;5051247;28;20483;-54
2021/04/15 03:38:11;;;;;;;4.40;1.73;;;;;;;;;;5046124;28;20461;-53
2021/04/15 03:40:38;;;;;;;4.47;2.25;;;;;;;;;;5051710;28;20132;-55
2021/04/15 03:43:09;;;;;;;4.20;2.30;;;;;;;;;;5051446;28;20039;-56
2021/04/15 03:45:41;;;;;;;4.43;2.08;;;;;;;;;;5051363;28;20021;-57
2021/04/15 03:48:09;;;;;;;5.85;2.10;;;;;;;;;;5051184;28;20112;-55
2021/04/15 03:50:49;;;;;;;3.95;2.17;;;;;;;;;;5049837;28;20100;-54
2021/04/15 03:53:17;;;;;;;6.13;2.63;;;;;;;;;;5047477;28;20045;-56
2021/04/15 03:55:45;;;;;;;6.15;2.00;;;;;;;;;;5051460;28;20025;-56
2021/04/15 03:58:16;;;;;;;4.55;2.38;;;;;;;;;;5042331;28;20112;-55
2021/04/15 04:00:46;;;;;;;4.68;2.00;;;;;;;;;;5047821;28;20017;-52
2021/04/15 04:03:17;;;;;;;6.65;2.33;;;;;;;;;;5050862;28;20060;-56
2021/04/15 04:05:51;;;;;;;6.22;2.30;;;;;;;;;;5051857;28;20025;-52
2021/04/15 04:08:19;;;;;;;3.72;2.15;;;;;;;;;;5047464;28;20116;-54
2021/04/15 04:10:46;;;;;;;7.85;2.78;;;;;;;;;;5050598;28;20025;-55
2021/04/15 04:13:24;;;;;;;5.38;2.13;;;;;;;;;;5047213;28;20469;-56
2021/04/15 04:15:53;;;;;;;3.50;1.98;;;;;;;;;;5040900;28;20065;-53
2021/04/15 04:18:26;;;;;;;2.90;2.03;;;;;;;;;;5050705;28;20117;-54
2021/04/15 04:20:55;;;;;;;5.25;2.15;;;;;;;;;;5050891;28;20021;-53
2021/04/15 04:23:28;;;;;;;3.80;2.22;;;;;;;;;;5050407;28;20028;-54
2021/04/15 04:26:04;;;;;;;4.03;1.92;;;;;;;;;;5050724;28;20107;-53
2021/04/15 04:28:42;;;;;;;6.03;2.03;;;;;;;;;;5049990;28;20036;-52
2021/04/15 04:31:20;;;;;;;5.13;2.30;;;;;;;;;;5054890;28;20060;-53
2021/04/15 04:33:48;;;;;;;5.47;2.10;;;;;;;;;;5063101;28;20032;-51
2021/04/15 04:36:16;;;;;;;8.95;2.72;;;;;;;;;;5046710;28;20034;-52
2021/04/15 04:38:42;;;;;;;8.43;2.63;;;;;;;;;;5037541;28;20025;-53
2021/04/15 04:41:12;;;;;;;4.05;1.85;;;;;;;;;;5054899;28;20021;-54
2021/04/15 04:43:47;;;;;;;4.97;2.22;;;;;;;;;;5055795;28;20037;-51
2021/04/15 04:46:19;;;;;;;3.78;2.45;;;;;;;;;;5055434;28;20032;-53
2021/04/15 04:48:53;;;;;;;5.25;2.10;;;;;;;;;;5053304;28;20453;-55
2021/04/15 04:51:20;;;;;;;7.60;2.13;;;;;;;;;;5049330;28;20036;-51
2021/04/15 04:53:48;;;;;;;3.50;1.85;;;;;;;;;;5054250;28;20033;-53
2021/04/15 04:56:14;;;;;;;5.13;2.20;;;;;;;;;;5052391;28;20083;-55
2021/04/15 04:58:40;;;;;;;2.88;1.92;;;;;;;;;;5049286;28;20021;-53
2021/04/15 05:01:07;;;;;;;4.22;2.15;;;;;;;;;;5053124;28;20088;-52
2021/04/15 05:03:33;;;;;;;6.18;2.15;;;;;;;;;;5059536;28;20028;-51
2021/04/15 05:06:09;;;;;;;3.75;2.10;;;;;;;;;;5052135;28;20067;-56
2021/04/15 05:08:48;;;;;;;7.40;2.40;;;;;;;;;;5034392;28;20030;-57
2021/04/15 05:11:14;;;;;;;7.95;2.83;;;;;;;;;;5050499;28;20124;-56
2021/04/15 05:13:41;;;;;;;4.80;2.30;;;;;;;;;;5059939;28;20041;-57
2021/04/15 05:16:07;;;;;;;2.97;1.83;;;;;;;;;;5057364;28;20033;-57
2021/04/15 05:18:33;;;;;;;8.07;2.20;;;;;;;;;;5055253;28;20032;-56
2021/04/15 05:21:16;;;;;;;5.18;1.75;;;;;;;;;;5051294;28;20542;-53
2021/04/15 05:23:50;;;;;;;6.95;2.33;;;;;;;;;;5051800;28;20056;-55
2021/04/15 05:26:19;;;;;;;3.85;2.35;;;;;;;;;;5053801;28;20025;-54
2021/04/15 05:28:46;;;;;;;9.50;2.15;;;;;;;;;;5053116;28;20036;-52
2021/04/15 05:31:14;;;;;;;4.22;1.92;;;;;;;;;;5053771;28;20036;-51
2021/04/15 05:33:40;;;;;;;5.95;2.15;;;;;;;;;;5053118;28;20029;-54
2021/04/15 05:36:19;;;;;;;7.70;2.33;;;;;;;;;;5050231;28;20029;-51
2021/04/15 05:38:47;;;;;;;4.75;2.20;;;;;;;;;;5052932;28;20025;-52
2021/04/15 05:41:17;;;;;;;3.38;1.95;;;;;;;;;;5052401;28;20040;-50
2021/04/15 05:43:46;;;;;;;6.60;2.20;;;;;;;;;;5056733;28;20432;-52
2021/04/15 05:46:18;;;;;;;6.13;2.60;;;;;;;;;;5052129;28;20033;-50
2021/04/15 05:48:44;;;;;;;6.72;2.65;;;;;;;;;;5053780;28;20369;-52
2021/04/15 05:51:16;;;;;;;9.85;2.75;;;;;;;;;;5053570;28;20075;-54
2021/04/15 05:53:45;;;;;;;5.05;2.35;;;;;;;;;;5052881;28;20029;-55
2021/04/15 05:56:17;;;;;;;3.97;2.45;;;;;;;;;;5052977;28;20428;-51
2021/04/15 05:59:00;;;;;;;4.93;2.70;;;;;;;;;;5054401;28;20017;-54
2021/04/15 06:01:31;;;;;;;7.25;2.97;;;;;;;;;;5051876;28;20515;-53
2021/04/15 06:04:16;;;;;;;11.20;3.00;;;;;;;;;;5052685;28;20098;-53
2021/04/15 06:06:43;;;;;;;4.95;2.45;;;;;;;;;;5052038;28;20100;-54
2021/04/15 06:09:09;;;;;;;7.97;2.90;;;;;;;;;;5052755;28;20366;-54
2021/04/15 06:11:40;;;;;;;6.63;2.78;;;;;;;;;;5052888;28;20430;-55
2021/04/15 06:14:18;;;;;;;9.40;2.55;;;;;;;;;;5052552;28;20025;-56
2021/04/15 06:16:47;;;;;;;8.27;3.50;;;;;;;;;;5052678;28;20117;-56
2021/04/15 06:19:15;;;;;;;11.45;3.10;;;;;;;;;;5052502;28;20111;-55
2021/04/15 06:21:43;;;;;;;6.88;2.88;;;;;;;;;;5052339;28;20055;-55
2021/04/15 06:24:14;;;;;;;7.82;2.60;;;;;;;;;;5052499;28;20071;-53
2021/04/15 06:26:49;;;;;;;7.30;2.78;;;;;;;;;;5052272;28;20036;-54
2021/04/15 06:29:34;;;;;;;9.65;2.92;;;;;;;;;;5050399;28;20029;-55
2021/04/15 06:32:02;;;;;;;7.80;3.03;;;;;;;;;;5052739;28;20112;-54
2021/04/15 06:34:28;;;;;;;6.18;2.83;;;;;;;;;;5039548;28;20358;-56
2021/04/15 06:37:07;;;;;;;4.45;2.40;;;;;;;;;;5048163;28;20741;-52
2021/04/15 06:39:38;;;;;;;7.13;3.03;;;;;;;;;;5053048;28;20029;-51
2021/04/15 06:42:20;;;;;;;7.40;3.30;;;;;;;;;;5058648;28;20029;-51
2021/04/15 06:44:53;;;;;;;6.60;2.90;;;;;;;;;;5053087;28;20086;-54
2021/04/15 06:47:35;;;;;;;6.57;2.40;;;;;;;;;;5052199;28;20102;-50
2021/04/15 06:50:08;;;;;;;5.78;2.67;;;;;;;;;;5052800;28;20045;-54
2021/04/15 06:52:43;;;;;;;7.78;2.40;;;;;;;;;;5045282;28;20075;-55
2021/04/15 06:55:15;;;;;;;5.60;2.92;;;;;;;;;;5051193;28;20033;-55
2021/04/15 06:57:53;;;;;;;7.10;2.83;;;;;;;;;;5045585;28;20025;-53
2021/04/15 07:00:19;;;;;;;4.45;2.00;;;;;;;;;;5048233;28;20056;-54
2021/04/15 07:02:52;;;;;;;5.60;2.17;;;;;;;;;;5050679;28;20087;-51
2021/04/15 07:05:23;;;;;;;4.72;1.75;;;;;;;;;;5040531;28;20461;-51
2021/04/15 07:07:55;;;;;;;3.28;1.83;;;;;;;;;;5051794;28;20124;-52
2021/04/15 07:10:21;;;;;;;4.93;2.08;;;;;;;;;;5043504;28;20104;-52
2021/04/15 07:13:06;;;;;;;6.25;2.20;;;;;;;;;;5050695;28;20029;-51
2021/04/15 07:15:37;;;;;;;6.43;2.08;;;;;;;;;;5045713;28;20044;-52
2021/04/15 07:18:15;;;;;;;5.07;2.40;;;;;;;;;;5039461;28;20025;-53
2021/04/15 07:20:59;;;;;;;6.68;2.28;;;;;;;;;;5044972;28;20580;-55
2021/04/15 07:23:36;;;;;;;6.18;1.55;;;;;;;;;;5051536;28;20032;-51
2021/04/15 07:26:12;;;;;;;3.17;1.88;;;;;;;;;;5051464;28;20478;-56
2021/04/15 07:28:47;;;;;;;2.95;1.63;;;;;;;;;;5044115;28;20033;-52
2021/04/15 07:31:33;;;;;;;4.88;1.75;;;;;;;;;;5051247;28;20036;-50
2021/04/15 07:34:16;;;;;;;6.43;1.92;;;;;;;;;;5050402;28;20033;-53
2021/04/15 07:37:02;;;;;;;3.03;1.60;;;;;;;;;;5047969;28;20029;-50
2021/04/15 07:39:34;;;;;;;4.30;1.80;;;;;;;;;;5050582;28;20408;-52
2021/04/15 07:42:18;;;;;;;4.22;1.85;;;;;;;;;;5050424;28;20029;-51
2021/04/15 07:44:47;;;;;;;5.00;2.03;;;;;;;;;;5050529;28;20111;-51
2021/04/15 07:47:36;;;;;;;3.38;1.77;;;;;;;;;;5038021;28;20025;-51
2021/04/15 07:50:22;;;;;;;5.25;1.90;;;;;;;;;;5045502;28;20055;-50
2021/04/15 07:53:07;;;;;;;4.18;1.63;;;;;;;;;;5052428;28;20057;-50
2021/04/15 07:55:37;;;;;;;3.40;1.52;;;;;;;;;;5049200;28;20488;-51
2021/04/15 07:58:03;;;;;;;5.18;1.70;;;;;;;;;;5046275;28;20021;-51
2021/04/15 08:00:46;;;;;;;2.47;1.60;;;;;;;;;;5047542;28;20021;-51
2021/04/15 08:03:31;;;;;;;5.78;1.67;;;;;;;;;;5043853;28;20036;-51
2021/04/15 08:06:00;;;;;;;6.05;1.77;;;;;;;;;;5054182;28;20104;-55
2021/04/15 08:08:53;;;;;;;3.88;1.60;;;;;;;;;;5043881;28;20033;-51
2021/04/15 08:11:19;;;;;;;4.88;1.50;;;;;;;;;;5053565;28;20441;-53
2021/04/15 08:14:03;;;;;;;7.03;1.73;;;;;;;;;;5057608;28;20043;-52
2021/04/15 08:16:48;;;;;;;2.28;1.23;;;;;;;;;;5057231;28;20846;-51
2021/04/15 08:19:14;;;;;;;2.92;1.02;;;;;;;;;;5059824;28;20025;-55
2021/04/15 08:21:52;;;;;;;1.92;1.15;;;;;;;;;;5053720;28;20483;-51
2021/04/15 08:24:34;;;;;;;2.80;1.33;;;;;;;;;;5050351;28;20500;-52
2021/04/15 08:27:11;;;;;;;1.30;1.00;;;;;;;;;;5049246;28;20497;-51
2021/04/15 08:29:44;;;;;;;1.65;0.90;;;;;;;;;;5048693;28;20033;-51
2021/04/15 08:32:29;;;;;;;3.35;1.15;;;;;;;;;;5054949;28;20544;-50
2021/04/15 08:35:18;;;;;;;1.15;0.65;;;;;;;;;;5046658;28;20450;-53
2021/04/15 08:37:50;;;;;;;1.58;0.60;;;;;;;;;;5051616;28;20017;-51
2021/04/15 08:40:29;;;;;;;0.82;0.57;;;;;;;;;;5054318;28;20513;-53
2021/04/15 08:43:21;;;;;;;3.38;0.90;;;;;;;;;;5054842;28;20025;-53
2021/04/15 08:45:51;;;;;;;2.03;0.65;;;;;;;;;;5041945;28;20037;-51
2021/04/15 08:48:20;;;;;;;1.50;0.52;;;;;;;;;;5061285;28;20021;-52
2021/04/15 08:51:01;;;;;;;1.65;0.70;;;;;;;;;;5054213;28;20029;-54
2021/04/15 08:53:45;;;;;;;6.97;0.68;;;;;;;;;;5054790;28;20408;-56
2021/04/15 08:56:18;;;;;;;1.38;0.57;;;;;;;;;;5051306;28;20174;-56
2021/04/15 08:59:02;;;;;;;1.17;0.60;;;;;;;;;;5048925;28;20520;-51
2021/04/15 09:01:37;;;;;;;0.80;0.40;;;;;;;;;;5049331;28;20024;-54
2021/04/15 09:04:16;;;;;;;2.97;0.80;;;;;;;;;;5053694;28;20029;-54
2021/04/15 09:06:46;;;;;;;0.90;0.50;;;;;;;;;;5049611;28;20021;-51
2021/04/15 09:09:17;;;;;;;1.73;0.75;;;;;;;;;;5053702;28;20121;-56
2021/04/15 09:11:58;;;;;;;2.30;0.75;;;;;;;;;;5046280;28;20029;-51
2021/04/15 09:14:24;;;;;;;4.60;1.13;;;;;;;;;;5044923;28;20373;-55
2021/04/15 09:17:10;;;;;;;2.47;0.70;;;;;;;;;;5041335;28;20017;-52
2021/04/15 09:19:57;;;;;;;1.25;0.63;;;;;;;;;;5050466;28;20424;-55
2021/04/15 09:22:37;;;;;;;1.10;0.40;;;;;;;;;;5053910;28;20468;-51
2021/04/15 09:25:05;;;;;;;1.17;0.47;;;;;;;;;;5053781;28;20025;-56
2021/04/15 09:27:45;;;;;;;1.27;0.60;;;;;;;;;;5054411;28;20025;-50
2021/04/15 09:30:16;;;;;;;1.58;0.50;;;;;;;;;;5051508;28;20028;-53
2021/04/15 09:33:00;;;;;;;1.25;0.45;;;;;;;;;;5056000;28;20040;-52
2021/04/15 09:35:29;;;;;;;5.22;0.55;;;;;;;;;;5041972;28;20058;-51
2021/04/15 09:38:20;;;;;;;0.30;0.28;;;;;;;;;;5044629;28;20039;-55
2021/04/15 09:40:53;;;;;;;1.23;0.40;;;;;;;;;;5041801;28;20095;-55
2021/04/15 09:43:38;;;;;;;3.47;0.50;;;;;;;;;;5053566;28;20037;-54
2021/04/15 09:46:22;;;;;;;2.38;0.43;;;;;;;;;;5054585;28;20495;-54
2021/04/15 09:49:07;;;;;;;2.15;0.50;;;;;;;;;;5040970;28;20536;-54
2021/04/15 09:51:48;;;;;;;1.25;0.47;;;;;;;;;;5047896;28;20057;-54
2021/04/15 09:54:20;;;;;;;0.52;0.30;;;;;;;;;;5047954;28;20440;-52
2021/04/15 09:57:05;;;;;;;0.40;0.30;;;;;;;;;;5050952;28;20389;-54
2021/04/15 09:59:53;;;;;;;2.45;0.50;;;;;;;;;;5042100;28;20049;-52
2021/04/15 10:02:23;;;;;;;5.63;1.08;;;;;;;;;;5045094;28;20552;-54
2021/04/15 10:05:00;;;;;;;0.47;0.45;;;;;;;;;;5047247;28;20029;-56
2021/04/15 10:07:30;;;;;;;3.03;0.40;;;;;;;;;;5050102;28;20057;-52
2021/04/15 10:10:05;;;;;;;0.60;0.30;;;;;;;;;;5051003;28;20037;-51
2021/04/15 10:12:33;;;;;;;1.58;0.60;;;;;;;;;;5052861;28;20029;-56
2021/04/15 10:15:20;;;;;;;1.33;0.47;;;;;;;;;;5051045;28;20040;-54
2021/04/15 10:17:46;;;;;;;0.65;0.40;;;;;;;;;;5039119;28;20128;-57
2021/04/15 10:20:21;;;;;;;0.47;0.20;;;;;;;;;;5050738;28;20039;-54
2021/04/15 10:22:50;;;;;;;0.40;0.30;;;;;;;;;;5050084;28;20041;-55
2021/04/15 10:25:18;;;;;;;4.07;0.38;;;;;;;;;;5044083;28;20033;-53
2021/04/15 10:27:54;;;;;;;0.20;0.20;;;;;;;;;;5053109;28;20025;-50
2021/04/15 10:30:24;;;;;;;0.73;0.40;;;;;;;;;;5050813;28;20473;-53
2021/04/15 10:33:07;;;;;;;0.90;0.40;;;;;;;;;;5047475;28;20111;-50
2021/04/15 10:35:59;;;;;;;1.00;0.40;;;;;;;;;;5051281;28;20031;-52
2021/04/15 10:38:38;;;;;;;1.38;0.30;;;;;;;;;;5040402;28;20465;-56
2021/04/15 10:41:23;;;;;;;0.95;0.30;;;;;;;;;;5039987;28;20127;-56
2021/04/15 10:43:58;;;;;;;1.08;0.43;;;;;;;;;;5052299;28;20032;-54
2021/04/15 10:46:39;;;;;;;1.23;0.45;;;;;;;;;;5051720;28;20031;-56
2021/04/15 10:49:24;;;;;;;1.50;0.50;;;;;;;;;;5049220;28;20107;-56
2021/04/15 10:52:25;;;;;;;0.65;0.30;;;;;;;;;;5039261;28;20124;-57
2021/04/15 10:54:51;;;;;;;1.77;0.40;;;;;;;;;;5042695;28;20033;-53
2021/04/15 10:57:22;;;;;;;0.85;0.30;;;;;;;;;;5047558;28;20045;-52
2021/04/15 10:59:49;;;;;;;1.90;0.52;;;;;;;;;;5043157;28;20541;-53
2021/04/15 11:02:18;;;;;;;2.55;0.60;;;;;;;;;;5045059;28;20369;-54
2021/04/15 11:04:45;;;;;;;0.90;0.50;;;;;;;;;;5048394;28;20373;-56
2021/04/15 11:07:15;;;;;;;0.50;0.30;;;;;;;;;;5049429;28;20413;-54
2021/04/15 11:09:42;;;;;;;0.65;0.38;;;;;;;;;;5051749;28;20483;-57
2021/04/15 11:12:13;;;;;;;1.50;0.60;;;;;;;;;;5051906;28;20103;-51
2021/04/15 11:14:48;;;;;;;1.80;0.30;;;;;;;;;;5051762;28;20354;-55
2021/04/15 11:17:27;;;;;;;0.95;0.40;;;;;;;;;;5050529;28;20025;-55
2021/04/15 11:20:08;;;;;;;1.27;0.50;;;;;;;;;;5051466;28;20033;-52
2021/04/15 11:22:35;;;;;;;1.00;0.60;;;;;;;;;;5042115;28;20033;-53
2021/04/15 11:25:12;;;;;;;0.88;0.52;;;;;;;;;;5050986;28;20425;-52
2021/04/15 11:27:39;;;;;;;2.42;0.30;;;;;;;;;;5043478;28;20033;-51
2021/04/15 11:30:05;;;;;;;6.90;0.50;;;;;;;;;;5046724;28;20056;-52
2021/04/15 11:32:34;;;;;;;2.58;0.40;;;;;;;;;;5046148;28;20097;-54
2021/04/15 11:35:01;;;;;;;2.63;0.32;;;;;;;;;;5049745;28;20041;-55
2021/04/15 11:37:27;;;;;;;1.98;0.60;;;;;;;;;;5043677;28;20112;-54
2021/04/15 11:40:12;;;;;;;0.90;0.50;;;;;;;;;;5055980;28;20044;-55
2021/04/15 11:42:38;;;;;;;0.90;0.40;;;;;;;;;;5059740;28;20025;-56
2021/04/15 11:45:05;;;;;;;3.72;1.48;;;;;;;;;;5059533;28;20032;-55
2021/04/15 11:47:34;;;;;;;1.98;0.30;;;;;;;;;;5055761;28;20108;-55
2021/04/15 11:50:26;;;;;;;0.43;0.32;;;;;;;;;;5056504;28;20483;-54
2021/04/15 11:52:54;;;;;;;0.95;0.40;;;;;;;;;;5044173;28;20059;-56
2021/04/15 11:55:35;;;;;;;4.13;1.13;;;;;;;;;;5040314;28;20037;-53
2021/04/15 11:58:05;;;;;;;3.55;0.40;;;;;;;;;;5050334;28;20053;-55
2021/04/15 12:00:34;;;;;;;1.75;0.50;;;;;;;;;;5056584;28;20031;-54
2021/04/15 12:03:00;;;;;;;1.70;0.47;;;;;;;;;;5057874;28;20041;-52
2021/04/15 12:05:29;;;;;;;1.65;0.50;;;;;;;;;;5051973;28;20032;-53
2021/04/15 12:08:01;;;;;;;0.50;0.30;;;;;;;;;;5053458;28;20036;-53
2021/04/15 12:10:29;;;;;;;3.78;0.40;;;;;;;;;;5054733;28;20028;-56
2021/04/15 12:12:59;;;;;;;0.80;0.30;;;;;;;;;;5053973;28;20108;-53
2021/04/15 12:15:28;;;;;;;1.05;0.50;;;;;;;;;;5054068;28;20033;-51
2021/04/15 12:17:58;;;;;;;3.00;0.50;;;;;;;;;;5054142;28;20021;-53
2021/04/15 12:20:33;;;;;;;1.15;0.38;;;;;;;;;;5055081;28;20449;-52
2021/04/15 12:23:07;;;;;;;1.08;0.45;;;;;;;;;;5054929;28;20116;-53
2021/04/15 12:25:39;;;;;;;2.45;0.50;;;;;;;;;;5053992;28;20028;-51
2021/04/15 12:28:23;;;;;;;4.07;0.40;;;;;;;;;;5054367;28;20029;-55
2021/04/15 12:30:53;;;;;;;0.70;0.50;;;;;;;;;;5054978;28;20029;-51
2021/04/15 12:33:25;;;;;;;3.75;0.70;;;;;;;;;;5055052;28;20033;-54
2021/04/15 12:35:54;;;;;;;1.38;0.70;;;;;;;;;;5060555;28;20029;-52
2021/04/15 12:38:49;;;;;;;2.85;0.52;;;;;;;;;;5049605;28;20031;-54
2021/04/15 12:41:16;;;;;;;1.70;0.50;;;;;;;;;;5043433;28;20032;-55
2021/04/15 12:43:46;;;;;;;0.70;0.40;;;;;;;;;;5060867;28;20803;-56
2021/04/15 12:46:17;;;;;;;2.85;0.68;;;;;;;;;;5056454;28;20028;-53
2021/04/15 12:48:50;;;;;;;0.95;0.60;;;;;;;;;;5053522;28;20559;-54
2021/04/15 12:51:16;;;;;;;;;;;;;;;;;;5053772;28;20041;-51
2021/04/15 12:53:44;;;;;;;0.93;0.50;;;;;;;;;;5054296;28;19951;-53
2021/04/15 12:56:13;;;;;;;1.00;0.50;;;;;;;;;;5056621;28;20715;-56
2021/04/15 12:58:39;;;;;;;1.42;0.55;;;;;;;;;;5041111;28;20039;-55
2021/04/15 13:01:06;;;;;;;0.95;0.70;;;;;;;;;;5060641;28;22030;-57
2021/04/15 13:03:42;;;;;;;3.25;0.50;;;;;;;;;;5054261;28;20032;-55
2021/04/15 13:06:10;;;;;;;1.73;0.45;;;;;;;;;;5060678;28;20044;-56
2021/04/15 13:08:36;;;;;;;4.50;0.60;;;;;;;;;;5053958;28;20496;-55
2021/04/15 13:11:08;;;;;;;3.38;0.60;;;;;;;;;;5055867;28;20029;-55
2021/04/15 13:13:36;;;;;;;3.60;0.57;;;;;;;;;;5060352;28;20029;-56
2021/04/15 13:16:03;;;;;;;2.88;0.63;;;;;;;;;;5052431;28;20025;-56
2021/04/15 13:18:44;;;;;;;1.40;0.82;;;;;;;;;;5053637;28;20100;-55
2021/04/15 13:21:12;;;;;;;1.48;0.50;;;;;;;;;;5057531;28;20033;-56
2021/04/15 13:23:41;;;;;;;0.93;0.50;;;;;;;;;;5052938;28;20036;-52
2021/04/15 13:26:07;;;;;;;3.38;0.60;;;;;;;;;;5053442;28;20184;-54
2021/04/15 13:28:42;;;;;;;0.93;0.63;;;;;;;;;;5055083;28;20035;-54
2021/04/15 13:31:09;;;;;;;1.10;0.60;;;;;;;;;;5050834;28;20104;-52
2021/04/15 13:33:35;;;;;;;1.67;0.60;;;;;;;;;;5055727;28;20043;-56
2021/04/15 13:36:01;;;;;;;0.98;0.40;;;;;;;;;;5052465;28;20033;-56
2021/04/15 13:38:46;;;;;;;1.35;0.70;;;;;;;;;;5053018;28;20025;-54
2021/04/15 13:41:24;;;;;;;2.00;0.60;;;;;;;;;;5058152;28;20025;-56
2021/04/15 13:43:56;;;;;;;4.95;0.60;;;;;;;;;;5054236;28;20025;-57
2021/04/15 13:46:27;;;;;;;1.30;0.50;;;;;;;;;;5055836;28;20499;-52
2021/04/15 13:48:58;;;;;;;2.65;0.70;;;;;;;;;;5060030;28;20025;-52
2021/04/15 13:51:26;;;;;;;0.55;0.35;;;;;;;;;;5056501;28;20048;-52
2021/04/15 13:53:55;;;;;;;0.57;0.32;;;;;;;;;;5054123;28;20481;-56
2021/04/15 13:56:29;;;;;;;0.65;0.43;;;;;;;;;;5055064;28;20082;-56
2021/04/15 13:58:55;;;;;;;0.47;0.40;;;;;;;;;;5056304;28;20033;-54
2021/04/15 14:01:43;;;;;;;0.85;0.45;;;;;;;;;;5056316;28;20028;-53
2021/04/15 14:04:10;;;;;;;1.42;0.70;;;;;;;;;;5058511;28;20036;-54
2021/04/15 14:06:37;;;;;;;2.05;0.60;;;;;;;;;;5058030;28;20043;-51
2021/04/15 14:09:11;;;;;;;1.77;0.70;;;;;;;;;;5049951;28;20016;-55
2021/04/15 14:11:39;;;;;;;0.60;0.60;;;;;;;;;;5053085;28;20032;-56
2021/04/15 14:14:27;;;;;;;6.13;0.70;;;;;;;;;;5060516;28;20033;-50
2021/04/15 14:16:54;;;;;;;3.25;0.60;;;;;;;;;;5052348;28;20051;-55
2021/04/15 14:19:34;;;;;;;0.70;0.47;;;;;;;;;;5057471;28;20067;-55
2021/04/15 14:22:00;;;;;;;1.20;0.57;;;;;;;;;;5059785;28;20029;-55
2021/04/15 14:24:32;;;;;;;3.78;0.70;;;;;;;;;;5052906;28;20793;-54
2021/04/15 14:27:00;;;;;;;1.02;0.70;;;;;;;;;;5052427;28;20025;-55
2021/04/15 14:29:34;;;;;;;0.82;0.50;;;;;;;;;;5039660;28;20025;-51
2021/04/15 14:32:03;;;;;;;2.63;0.45;;;;;;;;;;5051143;28;20025;-56
2021/04/15 14:34:33;;;;;;;0.85;0.55;;;;;;;;;;5059291;28;20072;-55
2021/04/15 14:37:00;;;;;;;1.33;0.57;;;;;;;;;;5052239;28;20051;-55
2021/04/15 14:39:33;;;;;;;0.73;0.43;;;;;;;;;;5055831;28;20094;-55
2021/04/15 14:42:07;;;;;;;4.25;0.80;;;;;;;;;;5059879;28;20043;-54
2021/04/15 14:44:33;;;;;;;;;;;;;;;;;;5054417;28;20025;-53
2021/04/15 14:47:00;;;;;;;2.38;0.60;;;;;;;;;;5059010;28;20313;-55
2021/04/15 14:49:28;;;;;;;1.33;0.60;;;;;;;;;;5054824;28;20032;-56
2021/04/15 14:52:13;;;;;;;2.13;0.45;;;;;;;;;;5051777;28;20133;-53
2021/04/15 14:54:39;;;;;;;1.70;1.08;;;;;;;;;;5055633;28;20479;-53
2021/04/15 14:57:10;;;;;;;3.22;0.60;;;;;;;;;;5060079;28;20119;-57
2021/04/15 14:59:38;;;;;;;2.00;0.50;;;;;;;;;;5035403;28;20053;-57
2021/04/15 15:02:14;;;;;;;1.15;0.57;;;;;;;;;;5063833;28;20029;-57
2021/04/15 15:04:40;;;;;;;1.75;0.57;;;;;;;;;;5054188;28;20561;-57
2021/04/15 15:07:07;;;;;;;2.28;0.63;;;;;;;;;;5053208;28;20029;-55
2021/04/15 15:09:33;;;;;;;0.70;0.60;;;;;;;;;;5055433;28;20035;-55
2021/04/15 15:12:07;;;;;;;1.13;0.75;;;;;;;;;;5044865;28;20037;-55
2021/04/15 15:14:43;;;;;;;1.08;0.60;;;;;;;;;;5040880;28;20069;-55
2021/04/15 15:17:10;;;;;;;2.15;0.80;;;;;;;;;;5051296;28;20495;-57